CYRQ

Trois-Rivieres Airport

Trois-Rivieres, , Canada
METAR CYRQ 170200Z AUTO 05002KT 9SM CLR M23/M26 A3014 RMK SLP213
Observed Flight Rules
Dec-17 @ 02:00 UTC (17 minutes ago) Visual Flight Rules
Wind Visibility Clouds
50° at 2 knots 9 miles
  • Clear skies
Temperatures Readings
Current -23°C / -9°F
Dewpoint -26°C / -15°F
Humidity 77%
Altimeter 30.14" Hg
Pressure 1021.3 hPa
Elevation 61
METAR CYRQ 170200Z AUTO 05002KT 9SM CLR M23/M26 A3014 RMK SLP213
Observed Flight Rules
Dec-17 @ 02:00 UTC
(17 minutes ago)
VFR
Wind Visibility
50° at 2 knots 9 miles
Clouds
  • Clear skies
Temperature Dewpoint
-23°C / -9°F -26°C / -15°F
Humidity Altimeter Pressure
77% 30.14" Hg 1021.3 hPa